sensor_id;sensor_type;location;lat;lon;timestamp;pressure;altitude;pressure_sealevel;temperature;humidity
29215;BME280;16252;49.816;7.964;2023-07-24T00:00:52;99194.56;;;24.65;41.66
29215;BME280;16252;49.816;7.964;2023-07-24T00:03:17;99179.28;;;24.58;41.53
29215;BME280;16252;49.816;7.964;2023-07-24T00:05:42;99190.16;;;24.64;41.89
29215;BME280;16252;49.816;7.964;2023-07-24T00:08:07;99193.88;;;24.70;41.33
29215;BME280;16252;49.816;7.964;2023-07-24T00:10:33;99185.72;;;24.63;41.80
29215;BME280;16252;49.816;7.964;2023-07-24T00:12:58;99198.88;;;24.73;41.68
29215;BME280;16252;49.816;7.964;2023-07-24T00:15:23;99203.16;;;24.69;41.82
29215;BME280;16252;49.816;7.964;2023-07-24T00:17:49;99194.34;;;24.67;41.64
29215;BME280;16252;49.816;7.964;2023-07-24T00:20:14;99196.81;;;24.69;41.70
29215;BME280;16252;49.816;7.964;2023-07-24T00:22:39;99180.88;;;24.65;41.59
29215;BME280;16252;49.816;7.964;2023-07-24T00:25:05;99166.59;;;24.63;42.12
29215;BME280;16252;49.816;7.964;2023-07-24T00:27:31;99165.16;;;24.61;42.06
29215;BME280;16252;49.816;7.964;2023-07-24T00:29:56;99180.06;;;24.65;41.83
29215;BME280;16252;49.816;7.964;2023-07-24T00:32:21;99169.88;;;24.54;42.01
29215;BME280;16252;49.816;7.964;2023-07-24T00:34:47;99183.25;;;24.62;41.60
29215;BME280;16252;49.816;7.964;2023-07-24T00:37:12;99178.69;;;24.56;41.88
29215;BME280;16252;49.816;7.964;2023-07-24T00:39:37;99182.03;;;24.58;41.80
29215;BME280;16252;49.816;7.964;2023-07-24T00:42:02;99158.47;;;24.38;41.95
29215;BME280;16252;49.816;7.964;2023-07-24T00:44:28;99161.34;;;24.43;42.33
29215;BME280;16252;49.816;7.964;2023-07-24T00:46:54;99177.63;;;24.57;42.10
29215;BME280;16252;49.816;7.964;2023-07-24T00:49:19;99170.56;;;24.49;42.39
29215;BME280;16252;49.816;7.964;2023-07-24T00:51:46;99173.06;;;24.51;42.04
29215;BME280;16252;49.816;7.964;2023-07-24T00:54:11;99169.13;;;24.47;42.45
29215;BME280;16252;49.816;7.964;2023-07-24T00:56:39;99173.44;;;24.54;42.34
29215;BME280;16252;49.816;7.964;2023-07-24T00:59:04;99160.50;;;24.43;42.30
29215;BME280;16252;49.816;7.964;2023-07-24T01:01:29;99152.47;;;24.48;42.60
29215;BME280;16252;49.816;7.964;2023-07-24T01:03:56;99148.84;;;24.54;42.25
29215;BME280;16252;49.816;7.964;2023-07-24T01:06:23;99120.19;;;24.38;42.54
29215;BME280;16252;49.816;7.964;2023-07-24T01:08:48;99144.00;;;24.56;42.43
29215;BME280;16252;49.816;7.964;2023-07-24T01:11:27;99159.00;;;24.65;42.23
29215;BME280;16252;49.816;7.964;2023-07-24T01:14:04;99136.97;;;24.60;42.42
29215;BME280;16252;49.816;7.964;2023-07-24T01:16:36;99154.06;;;24.56;42.49
29215;BME280;16252;49.816;7.964;2023-07-24T01:19:04;99155.81;;;24.50;42.60
29215;BME280;16252;49.816;7.964;2023-07-24T01:21:44;99149.34;;;24.44;42.54
29215;BME280;16252;49.816;7.964;2023-07-24T01:24:29;99155.00;;;24.50;42.33
29215;BME280;16252;49.816;7.964;2023-07-24T01:26:56;99140.00;;;24.34;42.78
29215;BME280;16252;49.816;7.964;2023-07-24T01:29:21;99125.94;;;24.30;42.74
29215;BME280;16252;49.816;7.964;2023-07-24T01:31:47;99121.91;;;24.33;42.74
29215;BME280;16252;49.816;7.964;2023-07-24T01:34:12;99099.53;;;24.24;42.81
29215;BME280;16252;49.816;7.964;2023-07-24T01:36:37;99101.81;;;24.27;42.84
29215;BME280;16252;49.816;7.964;2023-07-24T01:39:02;99091.34;;;24.24;43.00
29215;BME280;16252;49.816;7.964;2023-07-24T01:41:28;99091.56;;;24.22;42.85
29215;BME280;16252;49.816;7.964;2023-07-24T01:43:53;99079.13;;;24.27;43.27
29215;BME280;16252;49.816;7.964;2023-07-24T01:46:19;99064.69;;;24.19;43.03
29215;BME280;16252;49.816;7.964;2023-07-24T01:48:44;99052.31;;;24.17;43.15
29215;BME280;16252;49.816;7.964;2023-07-24T01:51:10;99051.47;;;24.16;43.26
29215;BME280;16252;49.816;7.964;2023-07-24T01:53:36;99037.66;;;24.11;43.21
29215;BME280;16252;49.816;7.964;2023-07-24T01:56:01;99048.13;;;24.14;43.51
29215;BME280;16252;49.816;7.964;2023-07-24T01:58:26;99048.81;;;24.10;43.27
29215;BME280;16252;49.816;7.964;2023-07-24T02:00:55;99041.53;;;24.04;43.13
29215;BME280;16252;49.816;7.964;2023-07-24T02:03:21;99067.72;;;24.11;43.24
29215;BME280;16252;49.816;7.964;2023-07-24T02:05:50;99077.38;;;24.14;43.13
29215;BME280;16252;49.816;7.964;2023-07-24T02:08:16;99096.88;;;24.36;42.08
29215;BME280;16252;49.816;7.964;2023-07-24T02:10:41;99095.28;;;24.10;43.54
29215;BME280;16252;49.816;7.964;2023-07-24T02:13:06;99092.06;;;23.94;43.48
29215;BME280;16252;49.816;7.964;2023-07-24T02:15:32;99062.66;;;23.71;44.15
29215;BME280;16252;49.816;7.964;2023-07-24T02:17:57;99066.03;;;23.73;43.76
29215;BME280;16252;49.816;7.964;2023-07-24T02:20:23;99063.72;;;23.70;43.95
29215;BME280;16252;49.816;7.964;2023-07-24T02:22:48;99081.16;;;23.69;44.07
29215;BME280;16252;49.816;7.964;2023-07-24T02:25:13;99076.31;;;23.71;44.02
29215;BME280;16252;49.816;7.964;2023-07-24T02:27:39;99083.72;;;23.64;44.08
29215;BME280;16252;49.816;7.964;2023-07-24T02:30:04;99075.22;;;23.54;44.29
29215;BME280;16252;49.816;7.964;2023-07-24T02:32:30;99097.66;;;23.56;44.28
29215;BME280;16252;49.816;7.964;2023-07-24T02:34:55;99082.84;;;23.45;44.09
29215;BME280;16252;49.816;7.964;2023-07-24T02:37:20;99096.25;;;23.47;44.37
29215;BME280;16252;49.816;7.964;2023-07-24T02:39:46;99108.63;;;23.49;44.37
29215;BME280;16252;49.816;7.964;2023-07-24T02:42:11;99091.72;;;23.41;44.27
29215;BME280;16252;49.816;7.964;2023-07-24T02:44:36;99083.81;;;23.32;44.48
29215;BME280;16252;49.816;7.964;2023-07-24T02:47:02;99078.09;;;23.34;44.59
29215;BME280;16252;49.816;7.964;2023-07-24T02:49:28;99074.88;;;23.44;44.29
29215;BME280;16252;49.816;7.964;2023-07-24T02:51:54;99055.22;;;23.35;44.58
29215;BME280;16252;49.816;7.964;2023-07-24T02:54:19;99064.19;;;23.42;44.68
29215;BME280;16252;49.816;7.964;2023-07-24T02:56:44;99069.41;;;23.44;44.72
29215;BME280;16252;49.816;7.964;2023-07-24T02:59:09;99058.78;;;23.35;44.75
29215;BME280;16252;49.816;7.964;2023-07-24T03:01:35;99061.69;;;23.41;44.86
29215;BME280;16252;49.816;7.964;2023-07-24T03:04:01;99059.78;;;23.41;45.03
29215;BME280;16252;49.816;7.964;2023-07-24T03:06:27;99054.94;;;23.43;44.67
29215;BME280;16252;49.816;7.964;2023-07-24T03:08:52;99042.38;;;23.42;44.98
29215;BME280;16252;49.816;7.964;2023-07-24T03:11:17;99038.41;;;23.38;44.83
29215;BME280;16252;49.816;7.964;2023-07-24T03:13:42;99029.59;;;23.36;45.03
29215;BME280;16252;49.816;7.964;2023-07-24T03:16:08;99019.97;;;23.33;44.81
29215;BME280;16252;49.816;7.964;2023-07-24T03:18:33;99023.16;;;23.30;44.99
29215;BME280;16252;49.816;7.964;2023-07-24T03:20:59;99021.47;;;23.29;45.08
29215;BME280;16252;49.816;7.964;2023-07-24T03:23:24;99025.25;;;23.28;44.99
29215;BME280;16252;49.816;7.964;2023-07-24T03:25:49;98999.09;;;23.21;45.31
29215;BME280;16252;49.816;7.964;2023-07-24T03:28:15;98979.00;;;23.15;45.02
29215;BME280;16252;49.816;7.964;2023-07-24T03:30:40;98957.63;;;23.12;45.36
29215;BME280;16252;49.816;7.964;2023-07-24T03:33:05;98955.47;;;23.14;45.61
29215;BME280;16252;49.816;7.964;2023-07-24T03:35:31;98939.88;;;23.03;45.27
29215;BME280;16252;49.816;7.964;2023-07-24T03:37:57;98937.50;;;23.06;45.32
29215;BME280;16252;49.816;7.964;2023-07-24T03:40:22;98898.31;;;22.76;45.39
29215;BME280;16252;49.816;7.964;2023-07-24T03:42:47;98957.66;;;23.05;45.81
29215;BME280;16252;49.816;7.964;2023-07-24T03:45:12;98979.50;;;23.05;45.94
29215;BME280;16252;49.816;7.964;2023-07-24T03:47:37;98978.66;;;23.05;45.68
29215;BME280;16252;49.816;7.964;2023-07-24T03:50:03;98980.31;;;23.06;45.63
29215;BME280;16252;49.816;7.964;2023-07-24T03:52:28;98987.31;;;23.02;45.87
29215;BME280;16252;49.816;7.964;2023-07-24T03:54:54;98997.94;;;23.10;45.83
29215;BME280;16252;49.816;7.964;2023-07-24T03:57:19;98988.75;;;23.04;45.89
29215;BME280;16252;49.816;7.964;2023-07-24T03:59:44;98967.59;;;23.00;45.87
29215;BME280;16252;49.816;7.964;2023-07-24T04:02:10;98984.28;;;23.10;45.84
29215;BME280;16252;49.816;7.964;2023-07-24T04:04:36;98969.50;;;22.99;45.94
29215;BME280;16252;49.816;7.964;2023-07-24T04:07:01;98944.84;;;22.81;45.73
29215;BME280;16252;49.816;7.964;2023-07-24T04:09:27;98969.50;;;22.92;45.91
29215;BME280;16252;49.816;7.964;2023-07-24T04:11:52;98976.69;;;22.87;45.85
29215;BME280;16252;49.816;7.964;2023-07-24T04:14:17;99013.50;;;23.03;46.18
29215;BME280;16252;49.816;7.964;2023-07-24T04:16:43;99012.50;;;22.97;46.33
29215;BME280;16252;49.816;7.964;2023-07-24T04:19:08;99007.47;;;22.94;46.44
29215;BME280;16252;49.816;7.964;2023-07-24T04:21:34;99003.25;;;22.98;46.28
29215;BME280;16252;49.816;7.964;2023-07-24T04:23:59;99001.78;;;22.96;46.34
29215;BME280;16252;49.816;7.964;2023-07-24T04:26:24;98994.25;;;22.98;46.61
29215;BME280;16252;49.816;7.964;2023-07-24T04:28:49;98999.50;;;22.99;46.39
29215;BME280;16252;49.816;7.964;2023-07-24T04:31:15;98988.81;;;22.91;46.73
29215;BME280;16252;49.816;7.964;2023-07-24T04:33:41;99028.16;;;23.08;46.49
29215;BME280;16252;49.816;7.964;2023-07-24T04:36:06;99038.41;;;23.13;46.40
29215;BME280;16252;49.816;7.964;2023-07-24T04:38:31;99001.41;;;22.92;46.34
29215;BME280;16252;49.816;7.964;2023-07-24T04:40:57;99008.22;;;23.08;46.54
29215;BME280;16252;49.816;7.964;2023-07-24T04:43:22;98892.13;;;22.37;46.36
29215;BME280;16252;49.816;7.964;2023-07-24T04:45:47;98925.31;;;22.59;46.48
29215;BME280;16252;49.816;7.964;2023-07-24T04:48:13;98940.31;;;22.68;46.46
29215;BME280;16252;49.816;7.964;2023-07-24T04:50:38;98927.06;;;22.46;46.49
29215;BME280;16252;49.816;7.964;2023-07-24T04:53:03;99035.47;;;23.14;46.94
29215;BME280;16252;49.816;7.964;2023-07-24T04:55:28;98963.75;;;22.76;46.85
29215;BME280;16252;49.816;7.964;2023-07-24T04:57:54;98923.28;;;22.47;47.02
29215;BME280;16252;49.816;7.964;2023-07-24T05:00:19;98981.91;;;22.88;47.09
29215;BME280;16252;49.816;7.964;2023-07-24T05:02:44;98947.47;;;22.69;46.80
29215;BME280;16252;49.816;7.964;2023-07-24T05:05:10;99037.91;;;23.23;46.78
29215;BME280;16252;49.816;7.964;2023-07-24T05:07:35;98961.84;;;22.76;46.82
29215;BME280;16252;49.816;7.964;2023-07-24T05:10:00;98896.47;;;22.44;46.76
29215;BME280;16252;49.816;7.964;2023-07-24T05:12:26;98949.13;;;22.70;46.78
29215;BME280;16252;49.816;7.964;2023-07-24T05:14:51;98971.28;;;22.80;46.64
29215;BME280;16252;49.816;7.964;2023-07-24T05:19:41;98942.84;;;22.69;46.56
29215;BME280;16252;49.816;7.964;2023-07-24T05:22:07;99034.78;;;23.19;47.11
29215;BME280;16252;49.816;7.964;2023-07-24T05:24:33;98900.69;;;22.40;47.22
29215;BME280;16252;49.816;7.964;2023-07-24T05:26:58;98938.66;;;22.67;47.51
29215;BME280;16252;49.816;7.964;2023-07-24T05:29:23;98916.56;;;22.50;47.47
29215;BME280;16252;49.816;7.964;2023-07-24T05:31:48;98974.63;;;22.82;47.35
29215;BME280;16252;49.816;7.964;2023-07-24T05:34:14;98939.94;;;22.64;47.36
29215;BME280;16252;49.816;7.964;2023-07-24T05:36:40;98927.41;;;22.57;47.54
29215;BME280;16252;49.816;7.964;2023-07-24T05:39:05;98987.72;;;22.99;47.59
29215;BME280;16252;49.816;7.964;2023-07-24T05:41:31;98912.56;;;22.53;47.49
29215;BME280;16252;49.816;7.964;2023-07-24T05:43:56;98951.41;;;22.73;47.32
29215;BME280;16252;49.816;7.964;2023-07-24T05:46:21;98902.31;;;22.48;47.20
29215;BME280;16252;49.816;7.964;2023-07-24T05:48:47;98925.91;;;22.61;47.35
29215;BME280;16252;49.816;7.964;2023-07-24T05:51:12;98949.13;;;22.70;47.50
29215;BME280;16252;49.816;7.964;2023-07-24T05:53:38;98912.16;;;22.49;47.53
29215;BME280;16252;49.816;7.964;2023-07-24T05:56:03;99020.72;;;23.22;47.60
29215;BME280;16252;49.816;7.964;2023-07-24T05:58:28;98874.78;;;22.31;47.75
29215;BME280;16252;49.816;7.964;2023-07-24T06:00:54;98883.97;;;22.37;47.67
29215;BME280;16252;49.816;7.964;2023-07-24T06:03:21;99007.56;;;23.12;47.74
29215;BME280;16252;49.816;7.964;2023-07-24T06:05:50;98933.94;;;22.81;47.64
29215;BME280;16252;49.816;7.964;2023-07-24T06:08:15;99000.53;;;23.23;47.79
29215;BME280;16252;49.816;7.964;2023-07-24T06:10:41;98932.88;;;22.82;47.71
29215;BME280;16252;49.816;7.964;2023-07-24T06:13:06;98958.50;;;23.06;47.47
29215;BME280;16252;49.816;7.964;2023-07-24T06:15:31;99007.03;;;23.47;47.68
29215;BME280;16252;49.816;7.964;2023-07-24T06:17:56;98974.81;;;23.38;47.91
29215;BME280;16252;49.816;7.964;2023-07-24T06:20:22;98892.81;;;22.82;47.91
29215;BME280;16252;49.816;7.964;2023-07-24T06:22:47;98906.50;;;23.01;47.22
29215;BME280;16252;49.816;7.964;2023-07-24T06:25:12;98977.38;;;23.51;47.96
29215;BME280;16252;49.816;7.964;2023-07-24T06:27:37;98923.75;;;23.20;47.30
29215;BME280;16252;49.816;7.964;2023-07-24T06:30:03;98951.28;;;23.36;47.16
29215;BME280;16252;49.816;7.964;2023-07-24T06:32:28;98951.53;;;23.35;47.33
29215;BME280;16252;49.816;7.964;2023-07-24T06:34:54;98948.56;;;23.36;47.63
29215;BME280;16252;49.816;7.964;2023-07-24T06:37:19;98951.16;;;23.50;47.37
29215;BME280;16252;49.816;7.964;2023-07-24T06:39:44;98863.13;;;22.92;47.45
29215;BME280;16252;49.816;7.964;2023-07-24T06:42:09;98891.69;;;23.15;47.45
29215;BME280;16252;49.816;7.964;2023-07-24T06:44:35;99005.66;;;23.82;47.49
29215;BME280;16252;49.816;7.964;2023-07-24T06:47:00;99026.44;;;24.01;47.30
29215;BME280;16252;49.816;7.964;2023-07-24T06:49:25;98918.25;;;23.45;47.28
29215;BME280;16252;49.816;7.964;2023-07-24T06:51:51;98949.47;;;23.67;47.21
29215;BME280;16252;49.816;7.964;2023-07-24T06:54:16;98969.09;;;23.83;47.09
29215;BME280;16252;49.816;7.964;2023-07-24T06:56:41;99024.06;;;24.23;46.85
29215;BME280;16252;49.816;7.964;2023-07-24T06:59:06;99031.13;;;24.31;46.97
29215;BME280;16252;49.816;7.964;2023-07-24T07:01:32;98997.59;;;24.05;47.14
29215;BME280;16252;49.816;7.964;2023-07-24T07:03:57;98883.44;;;23.40;47.13
29215;BME280;16252;49.816;7.964;2023-07-24T07:06:22;99042.34;;;24.41;47.48
29215;BME280;16252;49.816;7.964;2023-07-24T07:08:48;99027.25;;;24.38;47.27
29215;BME280;16252;49.816;7.964;2023-07-24T07:11:13;98955.28;;;23.96;46.93
29215;BME280;16252;49.816;7.964;2023-07-24T07:13:38;98953.16;;;23.98;46.76
29215;BME280;16252;49.816;7.964;2023-07-24T07:16:04;98954.47;;;24.07;47.05
29215;BME280;16252;49.816;7.964;2023-07-24T07:18:29;98906.97;;;23.78;46.80
29215;BME280;16252;49.816;7.964;2023-07-24T07:20:54;98982.22;;;24.41;46.97
29215;BME280;16252;49.816;7.964;2023-07-24T07:23:20;98943.47;;;24.14;46.96
29215;BME280;16252;49.816;7.964;2023-07-24T07:25:46;98901.47;;;23.96;46.99
29215;BME280;16252;49.816;7.964;2023-07-24T07:28:12;98912.59;;;24.13;47.17
29215;BME280;16252;49.816;7.964;2023-07-24T07:30:38;98921.22;;;24.10;47.07
29215;BME280;16252;49.816;7.964;2023-07-24T07:33:03;98994.63;;;24.55;47.04
29215;BME280;16252;49.816;7.964;2023-07-24T07:35:31;98908.38;;;23.99;47.01
29215;BME280;16252;49.816;7.964;2023-07-24T07:37:57;98880.41;;;23.85;47.14
29215;BME280;16252;49.816;7.964;2023-07-24T07:40:22;98896.97;;;24.02;46.96
29215;BME280;16252;49.816;7.964;2023-07-24T07:42:48;98911.97;;;24.11;47.36
29215;BME280;16252;49.816;7.964;2023-07-24T07:45:14;98990.53;;;24.64;47.07
29215;BME280;16252;49.816;7.964;2023-07-24T07:47:39;98930.22;;;24.29;47.05
29215;BME280;16252;49.816;7.964;2023-07-24T07:50:04;98940.13;;;24.42;47.23
29215;BME280;16252;49.816;7.964;2023-07-24T07:52:30;98892.19;;;24.28;46.91
29215;BME280;16252;49.816;7.964;2023-07-24T07:54:55;98938.03;;;24.56;46.87
29215;BME280;16252;49.816;7.964;2023-07-24T07:57:20;98901.94;;;24.35;46.58
29215;BME280;16252;49.816;7.964;2023-07-24T07:59:46;98945.81;;;24.71;47.40
29215;BME280;16252;49.816;7.964;2023-07-24T08:02:11;98886.47;;;24.59;46.96
29215;BME280;16252;49.816;7.964;2023-07-24T08:04:36;98913.50;;;25.03;46.84
29215;BME280;16252;49.816;7.964;2023-07-24T08:07:02;98971.94;;;25.67;46.60
29215;BME280;16252;49.816;7.964;2023-07-24T08:09:28;98915.41;;;25.49;46.02
29215;BME280;16252;49.816;7.964;2023-07-24T08:11:53;98910.25;;;25.65;45.49
29215;BME280;16252;49.816;7.964;2023-07-24T08:14:18;98883.41;;;25.50;45.27
29215;BME280;16252;49.816;7.964;2023-07-24T08:16:44;98902.03;;;25.65;45.04
29215;BME280;16252;49.816;7.964;2023-07-24T08:19:09;98927.94;;;25.98;44.88
29215;BME280;16252;49.816;7.964;2023-07-24T08:21:34;98814.97;;;25.38;44.67
29215;BME280;16252;49.816;7.964;2023-07-24T08:24:00;98804.13;;;25.43;44.72
29215;BME280;16252;49.816;7.964;2023-07-24T08:26:27;98895.00;;;26.09;44.81
29215;BME280;16252;49.816;7.964;2023-07-24T08:28:52;98947.16;;;26.55;44.32
29215;BME280;16252;49.816;7.964;2023-07-24T08:31:18;98923.06;;;26.45;44.23
29215;BME280;16252;49.816;7.964;2023-07-24T08:33:43;98895.25;;;26.36;43.75
29215;BME280;16252;49.816;7.964;2023-07-24T08:36:09;98808.94;;;25.93;43.95
29215;BME280;16252;49.816;7.964;2023-07-24T08:38:36;98948.59;;;26.74;43.89
29215;BME280;16252;49.816;7.964;2023-07-24T08:43:29;98956.31;;;26.77;43.46
29215;BME280;16252;49.816;7.964;2023-07-24T08:45:57;98872.88;;;26.28;43.39
29215;BME280;16252;49.816;7.964;2023-07-24T08:48:22;98889.25;;;26.40;43.35
29215;BME280;16252;49.816;7.964;2023-07-24T08:50:50;98817.75;;;25.96;43.42
29215;BME280;16252;49.816;7.964;2023-07-24T08:53:17;98863.13;;;26.20;43.41
29215;BME280;16252;49.816;7.964;2023-07-24T08:55:44;98830.03;;;25.93;43.32
29215;BME280;16252;49.816;7.964;2023-07-24T08:58:10;98866.19;;;26.07;43.84
29215;BME280;16252;49.816;7.964;2023-07-24T09:00:35;98857.78;;;25.97;44.11
29215;BME280;16252;49.816;7.964;2023-07-24T09:03:00;98866.41;;;25.88;44.17
29215;BME280;16252;49.816;7.964;2023-07-24T09:05:26;98841.59;;;25.83;44.58
29215;BME280;16252;49.816;7.964;2023-07-24T09:07:52;98782.53;;;25.47;44.55
29215;BME280;16252;49.816;7.964;2023-07-24T09:10:24;98890.94;;;26.12;44.12
29215;BME280;16252;49.816;7.964;2023-07-24T09:12:50;98826.53;;;25.69;44.46
29215;BME280;16252;49.816;7.964;2023-07-24T09:15:15;98896.88;;;26.21;44.43
29215;BME280;16252;49.816;7.964;2023-07-24T09:17:50;98799.13;;;25.69;44.49
29215;BME280;16252;49.816;7.964;2023-07-24T09:20:16;98759.97;;;25.40;44.26
29215;BME280;16252;49.816;7.964;2023-07-24T09:22:49;98865.28;;;26.18;44.50
29215;BME280;16252;49.816;7.964;2023-07-24T09:25:15;98781.97;;;25.85;44.27
29215;BME280;16252;49.816;7.964;2023-07-24T09:27:40;98793.53;;;26.21;43.95
29215;BME280;16252;49.816;7.964;2023-07-24T09:30:12;98882.41;;;27.05;43.81
29215;BME280;16252;49.816;7.964;2023-07-24T09:32:39;98843.84;;;27.16;43.17
29215;BME280;16252;49.816;7.964;2023-07-24T09:35:15;98827.47;;;27.43;43.04
29215;BME280;16252;49.816;7.964;2023-07-24T09:37:40;98846.03;;;28.02;42.35
29215;BME280;16252;49.816;7.964;2023-07-24T09:40:06;98735.88;;;27.82;42.20
29215;BME280;16252;49.816;7.964;2023-07-24T09:42:34;98860.75;;;29.10;41.83
29215;BME280;16252;49.816;7.964;2023-07-24T09:45:01;98848.22;;;29.39;40.98
29215;BME280;16252;49.816;7.964;2023-07-24T09:47:26;98758.91;;;29.20;40.15
29215;BME280;16252;49.816;7.964;2023-07-24T09:49:52;98821.41;;;29.88;39.43
29215;BME280;16252;49.816;7.964;2023-07-24T09:52:19;98884.97;;;30.34;39.01
29215;BME280;16252;49.816;7.964;2023-07-24T09:54:55;98845.16;;;30.04;38.76
29215;BME280;16252;49.816;7.964;2023-07-24T09:57:22;98818.09;;;29.80;38.10
29215;BME280;16252;49.816;7.964;2023-07-24T09:59:49;98899.53;;;30.19;37.99
29215;BME280;16252;49.816;7.964;2023-07-24T10:02:15;98847.53;;;29.70;38.11
29215;BME280;16252;49.816;7.964;2023-07-24T10:04:40;98914.06;;;29.94;38.34
29215;BME280;16252;49.816;7.964;2023-07-24T10:07:06;98817.56;;;29.21;38.40
29215;BME280;16252;49.816;7.964;2023-07-24T10:09:33;98794.78;;;28.93;38.90
29215;BME280;16252;49.816;7.964;2023-07-24T10:11:59;98892.31;;;29.45;38.36
29215;BME280;16252;49.816;7.964;2023-07-24T10:14:25;98842.81;;;29.07;38.65
29215;BME280;16252;49.816;7.964;2023-07-24T10:16:51;98817.88;;;28.82;38.95
29215;BME280;16252;49.816;7.964;2023-07-24T10:19:20;98837.97;;;28.87;38.74
29215;BME280;16252;49.816;7.964;2023-07-24T10:21:49;98778.16;;;28.40;38.74
29215;BME280;16252;49.816;7.964;2023-07-24T10:24:15;98846.16;;;28.77;39.30
29215;BME280;16252;49.816;7.964;2023-07-24T10:26:41;98807.47;;;28.51;39.18
29215;BME280;16252;49.816;7.964;2023-07-24T10:29:06;98899.19;;;29.00;39.12
29215;BME280;16252;49.816;7.964;2023-07-24T10:31:32;98837.97;;;28.50;39.35
29215;BME280;16252;49.816;7.964;2023-07-24T10:34:04;98908.25;;;28.95;39.39
29215;BME280;16252;49.816;7.964;2023-07-24T10:36:34;98915.63;;;28.89;39.21
29215;BME280;16252;49.816;7.964;2023-07-24T10:38:59;98901.72;;;28.69;39.41
29215;BME280;16252;49.816;7.964;2023-07-24T10:41:36;98906.94;;;28.70;39.65
29215;BME280;16252;49.816;7.964;2023-07-24T10:44:02;98901.53;;;28.53;39.63
29215;BME280;16252;49.816;7.964;2023-07-24T10:46:39;98877.47;;;28.39;39.55
29215;BME280;16252;49.816;7.964;2023-07-24T10:49:05;98904.19;;;28.43;39.80
29215;BME280;16252;49.816;7.964;2023-07-24T10:51:31;98886.19;;;28.30;39.73
29215;BME280;16252;49.816;7.964;2023-07-24T10:54:03;98879.56;;;28.26;39.94
29215;BME280;16252;49.816;7.964;2023-07-24T10:56:28;98874.25;;;28.20;39.86
29215;BME280;16252;49.816;7.964;2023-07-24T10:58:54;98887.44;;;28.18;40.04
29215;BME280;16252;49.816;7.964;2023-07-24T11:01:19;98887.66;;;28.11;40.11
29215;BME280;16252;49.816;7.964;2023-07-24T11:03:45;98892.38;;;28.16;40.45
29215;BME280;16252;49.816;7.964;2023-07-24T11:06:18;98891.84;;;28.19;40.41
29215;BME280;16252;49.816;7.964;2023-07-24T11:08:52;98883.91;;;28.22;40.29
29215;BME280;16252;49.816;7.964;2023-07-24T11:11:17;98869.75;;;28.08;40.27
29215;BME280;16252;49.816;7.964;2023-07-24T11:13:42;98873.63;;;28.13;40.01
29215;BME280;16252;49.816;7.964;2023-07-24T11:16:08;98875.50;;;28.07;39.95
29215;BME280;16252;49.816;7.964;2023-07-24T11:18:44;98882.78;;;28.18;39.99
29215;BME280;16252;49.816;7.964;2023-07-24T11:21:12;98868.47;;;28.16;39.91
29215;BME280;16252;49.816;7.964;2023-07-24T11:23:37;98828.41;;;27.98;39.98
29215;BME280;16252;49.816;7.964;2023-07-24T11:26:05;98856.09;;;28.19;39.93
29215;BME280;16252;49.816;7.964;2023-07-24T11:28:39;98864.16;;;28.30;39.76
29215;BME280;16252;49.816;7.964;2023-07-24T11:31:04;98859.97;;;28.23;39.75
29215;BME280;16252;49.816;7.964;2023-07-24T11:33:30;98845.72;;;28.26;39.89
29215;BME280;16252;49.816;7.964;2023-07-24T11:35:55;98834.19;;;28.29;39.97
29215;BME280;16252;49.816;7.964;2023-07-24T11:38:21;98839.47;;;28.36;40.12
29215;BME280;16252;49.816;7.964;2023-07-24T11:40:46;98837.94;;;28.45;39.65
29215;BME280;16252;49.816;7.964;2023-07-24T11:43:19;98807.97;;;28.48;39.64
29215;BME280;16252;49.816;7.964;2023-07-24T11:45:46;98843.59;;;28.65;39.04
29215;BME280;16252;49.816;7.964;2023-07-24T11:48:17;98818.53;;;28.62;38.97
29215;BME280;16252;49.816;7.964;2023-07-24T11:50:44;98829.09;;;28.75;38.91
29215;BME280;16252;49.816;7.964;2023-07-24T11:55:47;98818.34;;;28.73;38.90
29215;BME280;16252;49.816;7.964;2023-07-24T11:58:15;98791.06;;;28.67;38.98
29215;BME280;16252;49.816;7.964;2023-07-24T12:00:41;98814.28;;;28.86;38.95
29215;BME280;16252;49.816;7.964;2023-07-24T12:03:07;98770.72;;;28.73;38.69
29215;BME280;16252;49.816;7.964;2023-07-24T12:05:40;98808.63;;;29.03;38.88
29215;BME280;16252;49.816;7.964;2023-07-24T12:08:06;98785.97;;;28.91;38.38
29215;BME280;16252;49.816;7.964;2023-07-24T12:10:31;98780.50;;;29.01;38.61
29215;BME280;16252;49.816;7.964;2023-07-24T12:13:00;98783.31;;;29.06;38.57
29215;BME280;16252;49.816;7.964;2023-07-24T12:15:26;98780.34;;;29.13;38.76
29215;BME280;16252;49.816;7.964;2023-07-24T12:17:52;98796.66;;;29.25;38.60
29215;BME280;16252;49.816;7.964;2023-07-24T12:20:17;98785.91;;;29.28;38.33
29215;BME280;16252;49.816;7.964;2023-07-24T12:22:43;98776.84;;;29.28;38.25
29215;BME280;16252;49.816;7.964;2023-07-24T12:25:08;98788.16;;;29.36;38.16
29215;BME280;16252;49.816;7.964;2023-07-24T12:27:33;98778.22;;;29.35;38.32
29215;BME280;16252;49.816;7.964;2023-07-24T12:29:59;98782.63;;;29.31;38.22
29215;BME280;16252;49.816;7.964;2023-07-24T12:32:24;98780.94;;;29.25;38.40
29215;BME280;16252;49.816;7.964;2023-07-24T12:34:51;98753.34;;;29.10;38.45
29215;BME280;16252;49.816;7.964;2023-07-24T12:37:17;98787.22;;;29.10;38.38
29215;BME280;16252;49.816;7.964;2023-07-24T12:39:44;98776.88;;;28.90;38.49
29215;BME280;16252;49.816;7.964;2023-07-24T12:42:10;98800.84;;;28.90;38.84
29215;BME280;16252;49.816;7.964;2023-07-24T12:44:36;98777.34;;;28.72;39.04
29215;BME280;16252;49.816;7.964;2023-07-24T12:47:01;98767.63;;;28.59;38.73
29215;BME280;16252;49.816;7.964;2023-07-24T12:49:26;98774.22;;;28.63;39.13
29215;BME280;16252;49.816;7.964;2023-07-24T12:51:52;98766.19;;;28.51;39.20
29215;BME280;16252;49.816;7.964;2023-07-24T12:54:17;98752.34;;;28.41;39.38
29215;BME280;16252;49.816;7.964;2023-07-24T12:56:45;98773.50;;;28.41;39.62
29215;BME280;16252;49.816;7.964;2023-07-24T12:59:10;98763.78;;;28.28;39.55
29215;BME280;16252;49.816;7.964;2023-07-24T13:01:35;98780.84;;;28.30;39.89